createdAt,value
2022-09-30T00:00:28.626Z,2.45
2022-09-30T00:03:44.330Z,2.25
2022-09-30T00:06:29.296Z,2.65
2022-09-30T00:09:03.646Z,3.00
2022-09-30T00:11:37.910Z,2.33
2022-09-30T00:14:08.678Z,2.65
2022-09-30T00:16:42.514Z,2.05
2022-09-30T00:19:12.437Z,2.50
2022-09-30T00:21:43.413Z,2.38
2022-09-30T00:24:12.830Z,2.50
2022-09-30T00:26:44.383Z,2.15
2022-09-30T00:29:39.916Z,1.85
2022-09-30T00:32:14.462Z,2.25
2022-09-30T00:34:45.941Z,2.30
2022-09-30T00:37:20.997Z,1.95
2022-09-30T00:39:51.695Z,2.03
2022-09-30T00:42:44.288Z,1.95
2022-09-30T00:45:14.175Z,1.88
2022-09-30T00:47:48.603Z,2.28
2022-09-30T00:50:46.349Z,2.45
2022-09-30T00:53:37.281Z,2.25
2022-09-30T00:56:45.685Z,1.83
2022-09-30T00:59:33.386Z,2.70
2022-09-30T01:02:03.883Z,2.28
2022-09-30T01:04:35.182Z,2.17
2022-09-30T01:07:07.652Z,2.00
2022-09-30T01:09:43.485Z,2.30
2022-09-30T01:12:16.298Z,1.92
2022-09-30T01:16:26.038Z,2.05
2022-09-30T01:19:08.662Z,2.60
2022-09-30T01:22:09.933Z,1.75
2022-09-30T01:25:24.638Z,2.40
2022-09-30T01:28:30.379Z,2.33
2022-09-30T01:31:21.930Z,2.22
2022-09-30T01:34:03.675Z,2.40
2022-09-30T01:37:08.820Z,3.33
2022-09-30T01:40:08.714Z,2.20
2022-09-30T01:42:52.087Z,2.10
2022-09-30T01:46:06.137Z,2.40
2022-09-30T01:49:03.373Z,2.55
2022-09-30T01:51:56.906Z,2.08
2022-09-30T01:54:56.658Z,2.03
2022-09-30T01:57:48.936Z,2.35
2022-09-30T02:00:23.094Z,2.70
2022-09-30T02:03:04.980Z,2.08
2022-09-30T02:05:51.022Z,2.38
2022-09-30T02:08:56.744Z,2.42
2022-09-30T02:11:28.667Z,2.00
2022-09-30T02:14:03.652Z,2.22
2022-09-30T02:16:43.931Z,2.20
2022-09-30T02:19:38.609Z,1.80
2022-09-30T02:22:16.805Z,1.77
2022-09-30T02:24:51.095Z,1.60
2022-09-30T02:27:30.237Z,1.58
2022-09-30T02:30:02.317Z,1.98
2022-09-30T02:32:58.385Z,2.05
2022-09-30T02:35:38.687Z,1.83
2022-09-30T02:38:20.582Z,1.77
2022-09-30T02:41:00.274Z,1.98
2022-09-30T02:43:31.783Z,2.15
2022-09-30T02:46:14.641Z,1.73
2022-09-30T02:48:54.783Z,2.00
2022-09-30T02:51:35.334Z,1.92
2022-09-30T02:54:14.050Z,1.73
2022-09-30T02:56:50.706Z,1.90
2022-09-30T02:59:25.332Z,2.00
2022-09-30T03:01:53.769Z,1.65
2022-09-30T03:04:27.568Z,1.88
2022-09-30T03:06:56.650Z,1.70
2022-09-30T03:09:29.934Z,1.95
2022-09-30T03:12:20.472Z,2.03
2022-09-30T03:15:11.225Z,1.75
2022-09-30T03:18:11.228Z,1.83
2022-09-30T03:21:09.906Z,1.83
2022-09-30T03:24:16.637Z,1.65
2022-09-30T03:27:15.576Z,1.90
2022-09-30T03:30:02.116Z,1.65
2022-09-30T03:32:55.639Z,1.58
2022-09-30T03:36:01.354Z,2.00
2022-09-30T03:38:43.649Z,1.90
2022-09-30T03:41:52.266Z,2.08
2022-09-30T03:44:33.852Z,1.90
2022-09-30T03:47:16.830Z,1.73
2022-09-30T03:49:55.019Z,1.92
2022-09-30T03:52:27.353Z,1.50
2022-09-30T03:54:59.682Z,2.10
2022-09-30T03:57:30.441Z,2.47
2022-09-30T04:00:01.486Z,2.20
2022-09-30T04:02:57.652Z,2.00
2022-09-30T04:05:29.964Z,1.55
2022-09-30T04:08:00.395Z,1.95
2022-09-30T04:10:30.930Z,1.65
2022-09-30T04:12:59.598Z,2.17
2022-09-30T04:15:27.429Z,1.77
2022-09-30T04:18:08.808Z,2.03
2022-09-30T04:20:50.897Z,2.08
2022-09-30T04:23:23.827Z,2.22
2022-09-30T04:25:56.463Z,2.50
2022-09-30T04:28:26.844Z,2.40
2022-09-30T04:30:55.125Z,2.00
2022-09-30T04:33:27.568Z,2.20
2022-09-30T04:35:57.252Z,2.00
2022-09-30T04:38:25.480Z,2.40
2022-09-30T04:40:56.750Z,2.10
2022-09-30T04:43:28.547Z,3.33
2022-09-30T04:46:02.376Z,2.40
2022-09-30T04:48:34.944Z,2.65
2022-09-30T04:51:07.652Z,2.83
2022-09-30T04:53:37.120Z,2.90
2022-09-30T04:56:08.100Z,3.40
2022-09-30T04:58:39.389Z,3.25
2022-09-30T05:01:11.009Z,3.42
2022-09-30T05:03:40.567Z,3.50
2022-09-30T05:06:11.075Z,4.43
2022-09-30T05:08:47.540Z,3.92
2022-09-30T05:11:43.785Z,3.55
2022-09-30T05:14:12.542Z,3.15
2022-09-30T05:16:51.880Z,3.00
2022-09-30T05:19:27.312Z,2.13
2022-09-30T05:21:56.506Z,2.40
2022-09-30T05:24:32.765Z,3.30
2022-09-30T05:27:13.944Z,3.50
2022-09-30T05:29:46.015Z,4.60
2022-09-30T05:32:17.737Z,4.30
2022-09-30T05:34:56.495Z,3.55
2022-09-30T05:37:24.720Z,6.95
2022-09-30T05:39:54.009Z,4.03
2022-09-30T05:42:26.032Z,3.50
2022-09-30T05:49:57.667Z,6.45
2022-09-30T05:52:29.436Z,7.25
2022-09-30T05:55:12.613Z,5.80
2022-09-30T05:57:49.465Z,6.90
2022-09-30T06:05:10.042Z,6.63
2022-09-30T06:07:53.920Z,5.63
2022-09-30T06:10:27.689Z,3.63
2022-09-30T06:12:59.495Z,5.10
2022-09-30T06:15:30.230Z,3.53
2022-09-30T06:18:03.494Z,3.88
2022-09-30T06:24:13.405Z,2.97
2022-09-30T06:26:45.031Z,2.80
2022-09-30T06:29:20.222Z,2.60
2022-09-30T06:31:52.918Z,3.70
2022-09-30T06:34:32.421Z,3.00
2022-09-30T06:37:02.812Z,3.03
2022-09-30T06:39:34.978Z,3.33
2022-09-30T06:42:11.189Z,2.55
2022-09-30T06:45:08.288Z,3.03
2022-09-30T06:48:58.329Z,2.63
2022-09-30T06:51:38.426Z,2.90
2022-09-30T06:54:11.339Z,3.08
2022-09-30T06:56:40.322Z,10.50
2022-09-30T06:59:11.343Z,5.07
2022-09-30T07:01:40.631Z,4.45
2022-09-30T07:04:15.045Z,3.80
2022-09-30T07:07:09.008Z,8.05
2022-09-30T07:09:38.705Z,4.07
2022-09-30T07:12:09.467Z,3.33
2022-09-30T07:14:37.928Z,3.63
2022-09-30T07:17:07.153Z,3.85
2022-09-30T07:19:36.449Z,3.45
2022-09-30T07:22:22.421Z,4.97
2022-09-30T07:24:50.761Z,3.40
2022-09-30T07:27:19.841Z,2.92
2022-09-30T07:30:08.065Z,3.83
2022-09-30T07:32:36.028Z,3.30
2022-09-30T07:35:06.539Z,3.72
2022-09-30T07:38:00.804Z,5.32
2022-09-30T07:40:55.727Z,3.53
2022-09-30T07:43:23.491Z,4.20
2022-09-30T07:45:56.443Z,4.97
2022-09-30T07:48:43.603Z,4.95
2022-09-30T07:51:21.008Z,4.95
2022-09-30T07:53:54.817Z,5.07
2022-09-30T07:56:26.929Z,4.72
2022-09-30T07:59:00.425Z,4.95
2022-09-30T08:01:31.685Z,4.55
2022-09-30T08:04:03.728Z,7.70
2022-09-30T08:06:38.365Z,9.60
2022-09-30T08:09:29.538Z,5.30
2022-09-30T08:11:59.020Z,5.97
2022-09-30T08:14:28.155Z,6.03
2022-09-30T08:16:58.597Z,6.50
2022-09-30T08:19:31.532Z,8.68
2022-09-30T08:22:00.847Z,6.78
2022-09-30T08:24:29.353Z,6.20
2022-09-30T08:26:57.725Z,5.93
2022-09-30T08:29:54.609Z,6.93
2022-09-30T08:32:15.565Z,5.72
2022-09-30T08:34:43.317Z,4.13
2022-09-30T08:37:13.909Z,5.80
2022-09-30T08:39:46.925Z,4.78
2022-09-30T08:42:57.681Z,4.43
2022-09-30T08:46:11.170Z,5.00
2022-09-30T08:48:44.481Z,4.55
2022-09-30T08:51:42.283Z,4.07
2022-09-30T08:54:19.599Z,4.00
2022-09-30T08:56:52.155Z,3.88
2022-09-30T08:59:36.481Z,3.88
2022-09-30T09:02:23.264Z,3.65
2022-09-30T09:04:52.775Z,3.10
2022-09-30T09:07:48.059Z,3.40
2022-09-30T09:10:33.746Z,4.32
2022-09-30T09:13:29.514Z,3.85
2022-09-30T09:16:25.343Z,2.97
2022-09-30T09:19:25.226Z,4.25
2022-09-30T09:22:02.806Z,2.75
2022-09-30T09:24:41.906Z,3.90
2022-09-30T09:30:08.847Z,3.03
2022-09-30T09:32:37.129Z,3.95
2022-09-30T09:35:26.439Z,3.55
2022-09-30T09:38:26.300Z,3.17
2022-09-30T09:41:16.544Z,2.75
2022-09-30T09:44:02.119Z,4.63
2022-09-30T09:46:48.607Z,4.03
2022-09-30T09:49:28.497Z,3.88
2022-09-30T09:52:15.225Z,2.88
2022-09-30T09:54:52.762Z,3.58
2022-09-30T09:57:25.030Z,3.80
2022-09-30T10:00:59.948Z,3.33
2022-09-30T10:03:30.257Z,2.47
2022-09-30T10:06:07.815Z,3.17
2022-09-30T10:08:52.296Z,4.57
2022-09-30T10:11:27.801Z,2.70
2022-09-30T10:14:01.085Z,2.60
2022-09-30T10:16:38.482Z,3.00
2022-09-30T10:19:26.547Z,2.60
2022-09-30T10:22:11.999Z,2.75
2022-09-30T10:24:41.744Z,2.30
2022-09-30T10:27:30.004Z,2.60
2022-09-30T10:30:03.804Z,2.38
2022-09-30T10:32:37.666Z,2.30
2022-09-30T10:37:53.667Z,3.53
2022-09-30T10:40:28.039Z,3.20
2022-09-30T10:42:57.032Z,3.60
2022-09-30T10:45:38.976Z,3.72
2022-09-30T10:48:22.673Z,2.38
2022-09-30T10:50:56.731Z,1.42
2022-09-30T10:53:29.853Z,2.45
2022-09-30T10:55:58.899Z,2.75
2022-09-30T10:58:51.774Z,1.70
2022-09-30T11:01:46.350Z,3.30
2022-09-30T11:07:22.039Z,2.45
2022-09-30T11:10:05.466Z,2.05
2022-09-30T11:12:54.446Z,3.30
2022-09-30T11:15:32.188Z,1.73
2022-09-30T11:18:16.848Z,4.30
2022-09-30T11:21:27.551Z,2.10
2022-09-30T11:24:39.606Z,2.38
2022-09-30T11:27:40.651Z,2.78
2022-09-30T11:30:21.338Z,2.20
2022-09-30T11:33:18.990Z,2.25
2022-09-30T11:36:11.021Z,1.98
2022-09-30T11:39:18.724Z,2.40
2022-09-30T11:42:01.247Z,3.22
2022-09-30T11:44:43.544Z,1.67
2022-09-30T11:47:34.759Z,1.70
2022-09-30T11:50:45.927Z,2.22
2022-09-30T11:53:14.471Z,2.55
2022-09-30T11:55:59.686Z,2.35
2022-09-30T11:58:51.888Z,3.28
2022-09-30T12:01:45.461Z,1.75
2022-09-30T12:04:35.621Z,6.95
2022-09-30T12:07:12.990Z,2.03
2022-09-30T12:09:52.814Z,21.75
2022-09-30T12:12:22.371Z,17.40
2022-09-30T12:15:06.015Z,2.67
2022-09-30T12:17:49.706Z,27.42
2022-09-30T12:20:44.982Z,18.10
2022-09-30T12:23:39.838Z,2.42
2022-09-30T12:26:12.779Z,8.50
2022-09-30T12:29:11.014Z,16.48
2022-09-30T12:31:49.513Z,20.38
2022-09-30T12:35:01.523Z,2.22
2022-09-30T12:37:53.987Z,16.95
2022-09-30T12:40:42.265Z,5.43
2022-09-30T12:43:40.632Z,3.00
2022-09-30T12:46:28.527Z,3.15
2022-09-30T12:49:02.021Z,4.57
2022-09-30T12:51:38.985Z,8.63
2022-09-30T12:54:33.758Z,3.15
2022-09-30T12:57:09.292Z,8.10
2022-09-30T12:59:49.555Z,4.28
2022-09-30T13:02:36.814Z,5.78
2022-09-30T13:05:38.384Z,4.50
2022-09-30T13:08:32.770Z,4.43
2022-09-30T13:11:06.234Z,4.10
2022-09-30T13:13:57.433Z,4.50
2022-09-30T13:17:04.047Z,3.38
2022-09-30T13:19:48.608Z,2.33
2022-09-30T13:22:21.196Z,3.40
2022-09-30T13:24:59.168Z,3.33
2022-09-30T13:27:55.636Z,2.50
2022-09-30T13:30:34.451Z,2.65
2022-09-30T13:33:02.524Z,2.13
2022-09-30T13:35:51.606Z,6.22
2022-09-30T13:38:33.452Z,1.92
2022-09-30T13:41:20.718Z,3.70
2022-09-30T13:44:16.917Z,2.25
2022-09-30T13:46:58.210Z,1.90
2022-09-30T13:49:55.326Z,2.40
2022-09-30T13:52:35.670Z,2.83
2022-09-30T13:55:21.263Z,5.50
2022-09-30T13:58:07.276Z,5.82
2022-09-30T14:01:21.887Z,4.70
2022-09-30T14:04:19.394Z,5.13
2022-09-30T14:07:03.073Z,2.92
2022-09-30T14:10:06.876Z,5.15
2022-09-30T14:13:36.546Z,4.78
2022-09-30T14:16:16.566Z,8.50
2022-09-30T14:19:17.772Z,5.65
2022-09-30T14:21:47.561Z,4.47
2022-09-30T14:24:24.128Z,4.55
2022-09-30T14:27:10.848Z,3.40
2022-09-30T14:30:04.930Z,6.00
2022-09-30T14:32:39.822Z,12.90
2022-09-30T14:38:16.334Z,4.32
2022-09-30T14:40:54.016Z,6.43
2022-09-30T14:43:32.646Z,5.95
2022-09-30T14:46:10.258Z,8.38
2022-09-30T14:48:42.333Z,5.13
2022-09-30T14:51:21.470Z,8.07
2022-09-30T14:53:57.925Z,9.30
2022-09-30T14:56:35.667Z,7.25
2022-09-30T14:59:28.219Z,5.70
2022-09-30T15:02:02.387Z,6.20
2022-09-30T15:04:42.082Z,5.00
2022-09-30T15:07:11.673Z,5.40
2022-09-30T15:09:43.728Z,6.43
2022-09-30T15:12:16.028Z,6.05
2022-09-30T15:14:50.157Z,7.85
2022-09-30T15:17:25.187Z,7.07
2022-09-30T15:19:55.878Z,7.85
2022-09-30T15:22:26.424Z,8.20
2022-09-30T15:24:57.190Z,7.47
2022-09-30T15:27:33.299Z,9.15
2022-09-30T15:30:03.622Z,9.57
2022-09-30T15:32:36.739Z,10.25
2022-09-30T15:35:20.168Z,11.25
2022-09-30T15:37:48.861Z,11.95
2022-09-30T15:40:39.481Z,8.30
2022-09-30T15:43:17.100Z,14.15
2022-09-30T15:45:46.527Z,10.80
2022-09-30T15:48:28.732Z,11.70
2022-09-30T15:50:59.803Z,11.70
2022-09-30T15:53:46.349Z,8.52
2022-09-30T15:56:36.438Z,11.10
2022-09-30T15:59:11.377Z,12.38
2022-09-30T16:01:42.484Z,13.05
2022-09-30T16:04:14.476Z,12.55
2022-09-30T16:07:03.956Z,14.93
2022-09-30T16:09:36.620Z,11.30
2022-09-30T16:12:12.340Z,10.68
2022-09-30T16:14:49.418Z,13.38
2022-09-30T16:17:40.638Z,8.18
2022-09-30T16:20:20.794Z,13.57
2022-09-30T16:22:58.621Z,14.52
2022-09-30T16:25:58.587Z,15.18
2022-09-30T16:28:27.153Z,13.18
2022-09-30T16:30:55.724Z,14.73
2022-09-30T16:33:32.493Z,14.98
2022-09-30T16:36:10.196Z,14.93
2022-09-30T16:38:55.233Z,16.80
2022-09-30T16:41:27.270Z,16.90
2022-09-30T16:43:56.467Z,12.07
2022-09-30T16:46:25.408Z,13.02
2022-09-30T16:48:55.217Z,17.00
2022-09-30T16:51:38.697Z,15.73
2022-09-30T16:54:06.056Z,15.48
2022-09-30T16:56:36.271Z,15.50
2022-09-30T16:59:08.706Z,17.08
2022-09-30T17:01:39.794Z,14.70
2022-09-30T17:04:14.173Z,14.48
2022-09-30T17:06:51.761Z,17.25
2022-09-30T17:09:45.652Z,13.90
2022-09-30T17:12:18.232Z,16.05
2022-09-30T17:14:50.248Z,18.67
2022-09-30T17:17:28.662Z,18.48
2022-09-30T17:19:58.020Z,25.75
2022-09-30T17:22:30.426Z,22.95
2022-09-30T17:25:00.581Z,19.10
2022-09-30T17:27:34.409Z,12.52
2022-09-30T17:30:05.654Z,12.23
2022-09-30T17:32:40.434Z,15.48
2022-09-30T17:35:23.916Z,21.08
2022-09-30T17:37:53.266Z,23.85
2022-09-30T17:40:50.048Z,16.27
2022-09-30T17:43:25.481Z,24.88
2022-09-30T17:46:08.489Z,31.10
2022-09-30T17:48:40.559Z,9.27
2022-09-30T17:51:09.265Z,5.40
2022-09-30T17:53:38.966Z,6.03
2022-09-30T17:56:21.393Z,6.25
2022-09-30T17:58:52.307Z,6.53
2022-09-30T18:01:21.804Z,7.13
2022-09-30T18:03:56.539Z,6.60
2022-09-30T18:06:38.634Z,7.28
2022-09-30T18:09:07.552Z,6.80
2022-09-30T18:11:42.235Z,4.32
2022-09-30T18:16:41.662Z,13.10
2022-09-30T18:19:11.142Z,11.23
2022-09-30T18:21:43.369Z,13.85
2022-09-30T18:24:16.062Z,9.30
2022-09-30T18:26:48.493Z,6.00
2022-09-30T18:29:15.778Z,5.82
2022-09-30T18:31:43.324Z,5.80
2022-09-30T18:34:13.766Z,9.10
2022-09-30T18:36:42.647Z,13.60
2022-09-30T18:39:24.043Z,7.38
2022-09-30T18:41:56.509Z,6.07
2022-09-30T18:44:28.264Z,5.10
2022-09-30T18:46:56.147Z,4.97
2022-09-30T18:49:26.812Z,5.18
2022-09-30T18:51:57.870Z,4.88
2022-09-30T18:54:35.112Z,6.10
2022-09-30T18:57:12.474Z,9.32
2022-09-30T18:59:42.477Z,7.50
2022-09-30T19:02:46.285Z,6.97
2022-09-30T19:05:32.030Z,12.48
2022-09-30T19:08:04.576Z,10.65
2022-09-30T19:10:56.063Z,9.90
2022-09-30T19:13:29.811Z,15.70
2022-09-30T19:16:25.393Z,13.00
2022-09-30T19:18:55.816Z,11.77
2022-09-30T19:21:37.418Z,11.00
2022-09-30T19:24:10.682Z,15.30
2022-09-30T19:27:11.457Z,11.95
2022-09-30T19:29:56.047Z,8.55
2022-09-30T19:36:07.401Z,9.55
2022-09-30T19:39:12.097Z,19.83
2022-09-30T19:42:03.160Z,16.17
2022-09-30T19:45:12.920Z,12.70
2022-09-30T19:57:21.714Z,25.85
2022-09-30T20:03:25.309Z,19.80
2022-09-30T20:06:21.670Z,18.83
2022-09-30T20:11:56.445Z,5.20
2022-09-30T20:14:59.825Z,6.07
2022-09-30T20:17:45.220Z,6.60
2022-09-30T20:21:45.250Z,5.78
2022-09-30T20:30:04.194Z,7.47
2022-09-30T20:34:37.949Z,7.03
2022-09-30T20:38:25.727Z,5.97
2022-09-30T20:46:33.420Z,6.43
2022-09-30T20:49:03.507Z,6.20
2022-09-30T20:51:36.251Z,5.53
2022-09-30T20:54:07.263Z,5.22
2022-09-30T20:57:09.946Z,5.28
2022-09-30T20:59:47.310Z,6.60
2022-09-30T21:02:27.195Z,6.90
2022-09-30T21:05:10.824Z,6.80
2022-09-30T21:07:42.383Z,5.38
2022-09-30T21:10:21.240Z,4.32
2022-09-30T21:12:55.941Z,4.68
2022-09-30T21:15:24.582Z,5.00
2022-09-30T21:18:21.330Z,4.60
2022-09-30T21:21:23.353Z,5.20
2022-09-30T21:24:09.129Z,4.45
2022-09-30T21:26:45.721Z,3.80
2022-09-30T21:29:13.247Z,4.25
2022-09-30T21:31:50.436Z,4.55
2022-09-30T21:34:23.322Z,4.43
2022-09-30T21:36:58.145Z,4.15
2022-09-30T21:39:53.334Z,3.88
2022-09-30T21:42:58.017Z,3.90
2022-09-30T21:45:39.371Z,3.47
2022-09-30T22:03:49.780Z,4.15
2022-09-30T22:08:06.458Z,3.15
2022-09-30T22:16:43.120Z,4.15
2022-09-30T22:37:21.390Z,2.60
2022-09-30T22:39:58.596Z,2.38
2022-09-30T22:42:38.054Z,2.85
2022-09-30T22:47:43.944Z,2.65
2022-09-30T22:50:31.879Z,2.65
2022-09-30T22:53:15.370Z,2.65
2022-09-30T22:55:55.600Z,2.97
2022-09-30T22:59:00.697Z,2.55
2022-09-30T23:01:47.957Z,2.95
2022-09-30T23:04:24.195Z,2.45
2022-09-30T23:07:08.258Z,2.85
2022-09-30T23:09:57.120Z,3.13
2022-09-30T23:15:19.016Z,2.35
2022-09-30T23:17:51.828Z,2.40
2022-09-30T23:20:20.303Z,2.78
2022-09-30T23:22:56.522Z,2.75
2022-09-30T23:25:30.960Z,1.88
2022-09-30T23:28:25.548Z,2.67
2022-09-30T23:30:59.661Z,2.60
2022-09-30T23:33:31.565Z,2.70
2022-09-30T23:36:13.750Z,2.25
2022-09-30T23:38:46.717Z,2.67
2022-09-30T23:41:17.889Z,2.90
2022-09-30T23:43:48.874Z,2.58
2022-09-30T23:46:23.016Z,2.60
2022-09-30T23:48:52.284Z,2.97
2022-09-30T23:51:29.946Z,2.75
2022-09-30T23:54:14.016Z,2.95
2022-09-30T23:57:00.752Z,3.05
2022-09-30T23:59:32.401Z,2.92
